Time;durP1;ratioP1;P1;durP2;ratioP2;P2;SDS_P1;SDS_P2;PMS_P1;PMS_P2;Temp;Humidity;BMP_temperature;BMP_pressure;BME280_temperature;BME280_humidity;BME280_pressure;Samples;Min_cycle;Max_cycle;Signal;HPM_P1;HPM_P2
2020/12/14 00:01:39;;;;;;;2.75;1.05;;;19.30;41.00;;;;;;5052780;28;20579;-73
2020/12/14 00:04:05;;;;;;;0.52;0.20;;;19.30;41.00;;;;;;5053573;28;20025;-74
2020/12/14 00:06:31;;;;;;;0.10;0.10;;;19.30;41.10;;;;;;5043756;28;20040;-71
2020/12/14 00:08:57;;;;;;;0.25;0.17;;;19.20;41.00;;;;;;5022743;28;20036;-73
2020/12/14 00:11:22;;;;;;;1.30;0.40;;;19.20;41.10;;;;;;5027166;28;20559;-74
2020/12/14 00:13:48;;;;;;;0.85;0.35;;;19.20;41.00;;;;;;5036713;28;20072;-74
2020/12/14 00:16:13;;;;;;;0.68;0.20;;;19.20;41.20;;;;;;5014337;28;20523;-74
2020/12/14 00:18:39;;;;;;;0.82;0.28;;;19.20;41.20;;;;;;5025750;28;20052;-74
2020/12/14 00:21:04;;;;;;;0.08;0.08;;;19.20;41.20;;;;;;5048975;28;20029;-74
2020/12/14 00:23:30;;;;;;;0.47;0.10;;;19.20;41.20;;;;;;5053725;28;20086;-74
2020/12/14 00:25:56;;;;;;;0.32;0.22;;;19.20;41.30;;;;;;5042296;28;20053;-74
2020/12/14 00:28:30;;;;;;;0.20;0.20;;;19.20;41.30;;;;;;5027363;28;20096;-74
2020/12/14 00:30:56;;;;;;;0.30;0.10;;;19.20;41.40;;;;;;5045041;28;20033;-74
2020/12/14 00:33:21;;;;;;;0.40;0.40;;;19.20;41.40;;;;;;5034636;28;20040;-74
2020/12/14 00:35:47;;;;;;;0.25;0.25;;;19.20;41.40;;;;;;5032838;28;20029;-74
2020/12/14 00:38:12;;;;;;;0.55;0.20;;;19.10;41.40;;;;;;5030420;28;20037;-74
2020/12/14 00:40:38;;;;;;;0.75;0.35;;;19.10;41.40;;;;;;5017759;28;20064;-73
2020/12/14 00:43:04;;;;;;;0.55;0.22;;;19.10;41.50;;;;;;5053254;28;20025;-73
2020/12/14 00:45:38;;;;;;;1.70;0.28;;;19.10;41.60;;;;;;5044851;28;20451;-74
2020/12/14 00:48:04;;;;;;;0.68;0.20;;;19.00;41.60;;;;;;5052048;28;20025;-74
2020/12/14 00:50:29;;;;;;;0.90;0.35;;;19.00;41.60;;;;;;5048273;28;20033;-73
2020/12/14 00:52:55;;;;;;;0.10;0.10;;;19.00;42.30;;;;;;5035557;28;20029;-72
2020/12/14 00:55:20;;;;;;;0.60;0.38;;;19.00;41.70;;;;;;5042969;28;20110;-72
2020/12/14 00:57:46;;;;;;;0.15;0.13;;;19.00;41.80;;;;;;5033286;28;20041;-73
2020/12/14 01:00:11;;;;;;;0.35;0.30;;;19.00;41.70;;;;;;5045529;28;20029;-72
2020/12/14 01:02:37;;;;;;;0.10;0.10;;;19.00;41.70;;;;;;5050467;28;20111;-73
2020/12/14 01:05:03;;;;;;;0.45;0.25;;;19.00;41.70;;;;;;5033499;28;20543;-72
2020/12/14 01:07:31;;;;;;;0.50;0.20;;;19.00;41.80;;;;;;5031363;28;20428;-72
2020/12/14 01:09:57;;;;;;;1.60;0.20;;;19.00;41.80;;;;;;5036604;28;20033;-72
2020/12/14 01:12:22;;;;;;;0.00;0.00;;;19.00;41.70;;;;;;5035721;28;20044;-72
2020/12/14 01:14:48;;;;;;;0.85;0.25;;;19.00;41.80;;;;;;5034927;28;20040;-73
2020/12/14 01:17:29;;;;;;;0.68;0.45;;;19.00;41.80;;;;;;5019934;28;20040;-72
2020/12/14 01:19:54;;;;;;;3.00;0.47;;;19.00;41.90;;;;;;5047456;28;20100;-72
2020/12/14 01:22:20;;;;;;;0.17;0.17;;;19.00;41.80;;;;;;5051887;28;20108;-72
2020/12/14 01:24:45;;;;;;;0.40;0.30;;;19.00;41.90;;;;;;5051889;28;20022;-71
2020/12/14 01:27:11;;;;;;;0.57;0.55;;;19.00;42.00;;;;;;5032381;28;20029;-72
2020/12/14 01:29:36;;;;;;;3.17;0.50;;;19.00;42.10;;;;;;5066274;28;20037;-72
2020/12/14 01:32:02;;;;;;;0.15;0.15;;;19.00;42.10;;;;;;5026705;28;20041;-72
2020/12/14 01:34:34;;;;;;;0.25;0.20;;;19.00;42.10;;;;;;5065585;28;20056;-72
2020/12/14 01:36:59;;;;;;;0.75;0.45;;;19.00;42.10;;;;;;5022019;28;20035;-72
2020/12/14 01:39:25;;;;;;;0.22;0.10;;;19.00;42.20;;;;;;5055036;28;20392;-72
2020/12/14 01:41:50;;;;;;;0.60;0.30;;;19.00;42.20;;;;;;5040972;28;20078;-72
2020/12/14 01:44:16;;;;;;;0.10;0.10;;;19.00;42.10;;;;;;5068325;28;20099;-72
2020/12/14 01:46:43;;;;;;;0.20;0.20;;;19.00;42.10;;;;;;5037345;28;20446;-72
2020/12/14 01:49:08;;;;;;;0.63;0.20;;;19.00;42.10;;;;;;5053262;28;20048;-72
2020/12/14 01:51:40;;;;;;;2.05;0.10;;;19.00;42.80;;;;;;5052176;28;20445;-72
2020/12/14 01:54:17;;;;;;;0.35;0.10;;;19.00;42.20;;;;;;5054426;28;20033;-72
2020/12/14 01:56:43;;;;;;;1.85;0.80;;;19.00;42.20;;;;;;5038413;28;20033;-72
2020/12/14 01:59:09;;;;;;;3.25;0.52;;;19.00;42.20;;;;;;5054107;28;20033;-73
2020/12/14 02:01:35;;;;;;;0.22;0.13;;;19.00;42.20;;;;;;5023842;28;20026;-75
2020/12/14 02:04:01;;;;;;;0.20;0.20;;;19.00;42.40;;;;;;5035150;28;20041;-74
2020/12/14 02:06:26;;;;;;;0.20;0.20;;;19.00;42.40;;;;;;5041121;28;20029;-74
2020/12/14 02:08:52;;;;;;;0.85;0.40;;;18.90;42.40;;;;;;5047903;28;20024;-74
2020/12/14 02:11:17;;;;;;;0.60;0.20;;;18.90;42.40;;;;;;5046775;28;20021;-74
2020/12/14 02:13:58;;;;;;;0.20;0.20;;;19.00;43.10;;;;;;5022202;28;20028;-74
2020/12/14 02:16:24;;;;;;;1.13;0.38;;;18.90;42.50;;;;;;5027933;28;20138;-75
2020/12/14 02:18:49;;;;;;;2.58;0.20;;;19.00;42.50;;;;;;5019896;28;20079;-75
2020/12/14 02:21:15;;;;;;;0.45;0.20;;;19.00;42.60;;;;;;5034509;28;20500;-76
2020/12/14 02:23:41;;;;;;;0.10;0.10;;;19.00;43.00;;;;;;5020725;28;20028;-75
2020/12/14 02:26:07;;;;;;;0.57;0.22;;;18.90;43.00;;;;;;5052804;28;20079;-76
2020/12/14 02:28:32;;;;;;;0.55;0.30;;;18.90;42.80;;;;;;5055065;28;20409;-75
2020/12/14 02:30:58;;;;;;;0.13;0.10;;;18.90;42.80;;;;;;5036970;28;20394;-76
2020/12/14 02:33:23;;;;;;;0.00;0.00;;;18.90;42.70;;;;;;5036636;28;20044;-72
2020/12/14 02:35:49;;;;;;;2.63;0.68;;;18.90;42.80;;;;;;5034083;28;20032;-71
2020/12/14 02:38:14;;;;;;;0.65;0.30;;;19.00;42.80;;;;;;5019680;28;20112;-72
2020/12/14 02:41:14;;;;;;;1.45;0.60;;;18.90;42.70;;;;;;5053517;28;20043;-72
2020/12/14 02:43:40;;;;;;;0.10;0.10;;;19.00;42.80;;;;;;5052081;28;20078;-72
2020/12/14 02:46:05;;;;;;;0.20;0.10;;;18.90;43.50;;;;;;5053657;28;20029;-72
2020/12/14 02:48:31;;;;;;;0.38;0.13;;;19.00;43.00;;;;;;5051385;28;20108;-72
2020/12/14 02:50:56;;;;;;;0.82;0.20;;;19.00;43.00;;;;;;5053033;28;20025;-72
2020/12/14 02:53:22;;;;;;;2.35;0.43;;;18.90;43.00;;;;;;5035946;28;20037;-72
2020/12/14 02:55:47;;;;;;;0.30;0.15;;;18.90;43.20;;;;;;5031141;28;20060;-72
2020/12/14 02:59:03;;;;;;;0.28;0.25;;;18.90;43.30;;;;;;5037073;28;20033;-72
2020/12/14 03:01:50;;;;;;;0.40;0.30;;;18.90;43.20;;;;;;5049506;28;20029;-72
2020/12/14 03:04:16;;;;;;;0.20;0.20;;;18.90;43.30;;;;;;5034881;28;20052;-73
2020/12/14 03:06:51;;;;;;;0.50;0.20;;;18.90;43.30;;;;;;5032065;28;20100;-74
2020/12/14 03:09:18;;;;;;;0.30;0.10;;;18.90;43.30;;;;;;5035461;28;20025;-73
2020/12/14 03:11:43;;;;;;;0.45;0.43;;;18.90;43.40;;;;;;5055935;28;20252;-74
2020/12/14 03:14:09;;;;;;;0.60;0.20;;;18.90;43.40;;;;;;5037540;28;20101;-75
2020/12/14 03:16:53;;;;;;;0.75;0.20;;;18.90;43.50;;;;;;5035552;28;20106;-75
2020/12/14 03:19:19;;;;;;;3.30;0.45;;;18.90;43.60;;;;;;5054683;28;20032;-74
2020/12/14 03:21:45;;;;;;;0.25;0.20;;;18.90;43.60;;;;;;5054537;28;20108;-74
2020/12/14 03:24:57;;;;;;;0.90;0.45;;;18.90;43.60;;;;;;5033595;28;20043;-75
2020/12/14 03:27:23;;;;;;;1.02;0.38;;;18.80;43.50;;;;;;5052518;28;20089;-74
2020/12/14 03:29:48;;;;;;;0.57;0.40;;;18.90;43.60;;;;;;5057040;28;20469;-75
2020/12/14 03:32:17;;;;;;;0.90;0.05;;;18.90;43.60;;;;;;5002606;28;20114;-74
2020/12/14 03:34:42;;;;;;;0.00;0.00;;;18.90;43.70;;;;;;5033582;28;20037;-74
2020/12/14 03:37:08;;;;;;;1.77;0.68;;;18.80;43.60;;;;;;5018385;28;20094;-75
2020/12/14 03:39:33;;;;;;;0.00;0.00;;;18.80;43.50;;;;;;5035546;28;20032;-75
2020/12/14 03:41:59;;;;;;;0.55;0.22;;;18.80;43.50;;;;;;5053630;28;20049;-75
2020/12/14 03:44:24;;;;;;;0.10;0.10;;;18.90;43.60;;;;;;5021816;28;20397;-75
2020/12/14 03:46:50;;;;;;;0.10;0.10;;;18.80;43.70;;;;;;5052877;28;20051;-75
2020/12/14 03:49:16;;;;;;;0.35;0.20;;;18.80;43.80;;;;;;5017035;28;20033;-75
2020/12/14 03:51:41;;;;;;;0.50;0.30;;;18.80;43.90;;;;;;5035074;28;20388;-75
2020/12/14 03:54:07;;;;;;;0.73;0.20;;;18.80;43.90;;;;;;5032586;28;21406;-75
2020/12/14 03:56:32;;;;;;;0.05;0.05;;;18.80;44.00;;;;;;5053105;28;20170;-73
2020/12/14 03:59:00;;;;;;;0.10;0.10;;;18.80;44.10;;;;;;5051048;28;20127;-73
2020/12/14 04:01:26;;;;;;;4.35;0.32;;;18.70;44.20;;;;;;5050080;28;20051;-73
2020/12/14 04:03:52;;;;;;;3.47;0.30;;;18.70;44.30;;;;;;5054632;28;20028;-73
2020/12/14 04:06:27;;;;;;;1.05;0.40;;;18.70;44.40;;;;;;5017890;28;20565;-73
2020/12/14 04:08:53;;;;;;;0.00;0.00;;;18.70;44.40;;;;;;5039812;28;20484;-73
2020/12/14 04:11:19;;;;;;;0.20;0.20;;;18.70;44.30;;;;;;5019039;28;20408;-74
2020/12/14 04:13:46;;;;;;;0.57;0.17;;;18.70;44.30;;;;;;5027507;28;20025;-74
2020/12/14 04:16:12;;;;;;;1.42;0.28;;;18.70;44.40;;;;;;5005591;28;20041;-75
2020/12/14 04:18:37;;;;;;;0.47;0.10;;;18.70;44.30;;;;;;5039878;28;20037;-75
2020/12/14 04:21:03;;;;;;;2.28;0.30;;;18.80;44.20;;;;;;5041012;28;20040;-75
2020/12/14 04:23:29;;;;;;;5.10;0.30;;;18.70;44.30;;;;;;5054968;28;20097;-72
2020/12/14 04:25:54;;;;;;;0.35;0.20;;;18.70;44.40;;;;;;5049895;28;20033;-74
2020/12/14 04:28:20;;;;;;;4.88;0.55;;;18.70;44.40;;;;;;5027463;28;20386;-73
2020/12/14 04:30:46;;;;;;;0.30;0.20;;;18.70;44.40;;;;;;5029533;28;20033;-72
2020/12/14 04:33:12;;;;;;;2.45;0.25;;;18.80;44.30;;;;;;5051816;28;20039;-72
2020/12/14 04:35:37;;;;;;;0.15;0.10;;;18.80;44.30;;;;;;5009488;28;20505;-74
2020/12/14 04:38:03;;;;;;;0.68;0.45;;;18.80;44.30;;;;;;5063309;28;20036;-72
2020/12/14 04:40:40;;;;;;;1.10;0.20;;;18.80;44.30;;;;;;5017489;28;20048;-72
2020/12/14 04:43:09;;;;;;;0.40;0.30;;;18.80;45.00;;;;;;5061721;28;20040;-73
2020/12/14 04:45:35;;;;;;;0.00;0.00;;;18.80;44.40;;;;;;5013870;28;20115;-72
2020/12/14 04:48:00;;;;;;;0.30;0.20;;;18.80;44.30;;;;;;5034970;28;20512;-73
2020/12/14 04:50:26;;;;;;;0.08;0.08;;;18.80;44.30;;;;;;5016829;28;20104;-73
2020/12/14 04:52:52;;;;;;;0.28;0.17;;;18.80;44.40;;;;;;5018826;28;20477;-73
2020/12/14 04:55:21;;;;;;;0.70;0.17;;;18.80;44.30;;;;;;5039210;28;20017;-72
2020/12/14 04:57:47;;;;;;;0.75;0.40;;;18.80;44.40;;;;;;5035184;28;20071;-72
2020/12/14 05:00:13;;;;;;;1.92;0.40;;;18.80;44.50;;;;;;5030619;28;20091;-72
2020/12/14 05:02:39;;;;;;;0.30;0.20;;;18.80;44.30;;;;;;5047377;28;20455;-72
2020/12/14 05:05:05;;;;;;;0.52;0.20;;;18.80;44.30;;;;;;5049891;28;20025;-72
2020/12/14 05:07:40;;;;;;;0.68;0.20;;;18.80;44.50;;;;;;5051963;28;20051;-73
2020/12/14 05:10:06;;;;;;;0.20;0.20;;;18.90;44.60;;;;;;5055987;28;20031;-72
2020/12/14 05:12:37;;;;;;;1.27;0.28;;;18.90;44.50;;;;;;5016051;28;20036;-73
2020/12/14 05:15:02;;;;;;;0.45;0.20;;;19.00;44.50;;;;;;5026408;28;20032;-72
2020/12/14 05:17:28;;;;;;;0.17;0.10;;;19.10;44.60;;;;;;5057641;28;20033;-73
2020/12/14 05:19:53;;;;;;;0.20;0.20;;;19.10;44.40;;;;;;5038064;28;20032;-72
2020/12/14 05:22:19;;;;;;;1.00;0.10;;;19.20;44.40;;;;;;5029972;28;20063;-73
2020/12/14 05:24:51;;;;;;;0.22;0.20;;;19.20;44.50;;;;;;5043712;28;20109;-73
2020/12/14 05:27:34;;;;;;;0.20;0.20;;;19.30;44.50;;;;;;5030875;28;20041;-72
2020/12/14 05:30:01;;;;;;;0.20;0.13;;;19.40;44.40;;;;;;5034105;28;20045;-72
2020/12/14 05:32:26;;;;;;;0.20;0.10;;;19.40;44.40;;;;;;5053431;28;20450;-72
2020/12/14 05:34:52;;;;;;;0.20;0.20;;;19.50;44.30;;;;;;5020637;28;20033;-72
2020/12/14 05:37:18;;;;;;;0.40;0.10;;;19.60;44.40;;;;;;5037929;28;20044;-72
2020/12/14 05:39:44;;;;;;;0.35;0.05;;;19.60;44.20;;;;;;5047374;28;20103;-72
2020/12/14 05:42:16;;;;;;;0.90;0.20;;;19.70;44.20;;;;;;5029412;28;20090;-72
2020/12/14 05:44:43;;;;;;;0.03;0.03;;;19.70;44.30;;;;;;5059938;28;20103;-72
2020/12/14 05:47:23;;;;;;;0.95;0.20;;;19.80;44.30;;;;;;5036431;28;20040;-73
2020/12/14 05:49:50;;;;;;;0.10;0.10;;;19.80;44.10;;;;;;5035082;28;20074;-74
2020/12/14 05:52:18;;;;;;;0.10;0.10;;;19.90;44.20;;;;;;5040630;28;20028;-74
2020/12/14 05:54:51;;;;;;;0.10;0.10;;;19.90;44.20;;;;;;5045155;28;20029;-74
2020/12/14 05:57:31;;;;;;;1.45;0.10;;;19.90;44.20;;;;;;5044059;28;20024;-73
2020/12/14 06:00:07;;;;;;;0.17;0.10;;;20.00;44.10;;;;;;5032848;28;20033;-73
2020/12/14 06:02:33;;;;;;;;;;;20.00;44.10;;;;;;5063576;28;20179;-74
2020/12/14 06:05:02;;;;;;;1.27;0.20;;;20.00;44.10;;;;;;5040951;28;20390;-73
2020/12/14 06:07:28;;;;;;;0.10;0.10;;;20.00;44.10;;;;;;5057925;28;20032;-74
2020/12/14 06:10:08;;;;;;;0.30;0.20;;;20.10;44.20;;;;;;5053316;28;20021;-73
2020/12/14 06:12:36;;;;;;;1.50;0.20;;;20.10;44.20;;;;;;5061945;28;20108;-73
2020/12/14 06:15:15;;;;;;;0.43;0.30;;;20.10;44.10;;;;;;5057074;28;20025;-73
2020/12/14 06:17:41;;;;;;;0.08;0.08;;;20.10;44.20;;;;;;5048819;28;20045;-73
2020/12/14 06:20:17;;;;;;;0.20;0.10;;;20.10;44.30;;;;;;5056822;28;20033;-73
2020/12/14 06:22:50;;;;;;;0.45;0.20;;;20.10;44.90;;;;;;5050970;28;20032;-73
2020/12/14 06:25:16;;;;;;;0.10;0.10;;;20.10;44.30;;;;;;5049918;28;20029;-74
2020/12/14 06:27:42;;;;;;;0.15;0.10;;;20.10;44.50;;;;;;5042223;28;20146;-73
2020/12/14 06:30:26;;;;;;;0.43;0.10;;;20.10;44.50;;;;;;5041796;28;20051;-74
2020/12/14 06:32:58;;;;;;;0.15;0.15;;;20.10;44.50;;;;;;5041933;28;20029;-72
2020/12/14 06:35:41;;;;;;;0.10;0.10;;;20.10;44.70;;;;;;5037343;28;20036;-72
2020/12/14 06:38:06;;;;;;;1.75;0.25;;;20.00;44.90;;;;;;5067243;28;20385;-73
2020/12/14 06:40:57;;;;;;;0.85;0.10;;;20.10;44.90;;;;;;5068537;28;20091;-74
2020/12/14 06:43:32;;;;;;;0.10;0.10;;;20.10;44.90;;;;;;5048208;28;20024;-72
2020/12/14 06:45:58;;;;;;;0.55;0.15;;;20.10;45.10;;;;;;5058165;28;20072;-73
2020/12/14 06:51:52;;;;;;;0.73;0.15;;;20.00;45.10;;;;;;5064286;28;20036;-72
2020/12/14 06:54:46;;;;;;;0.10;0.10;;;20.00;45.10;;;;;;5054277;28;20028;-72
2020/12/14 06:57:17;;;;;;;0.30;0.10;;;20.00;45.20;;;;;;5049814;28;20107;-72
2020/12/14 06:59:51;;;;;;;0.10;0.10;;;20.00;45.30;;;;;;5061608;28;20028;-72
2020/12/14 07:02:36;;;;;;;0.93;0.30;;;20.00;45.40;;;;;;5036991;28;20041;-72
2020/12/14 07:05:02;;;;;;;4.32;0.20;;;20.00;45.30;;;;;;5046289;28;20045;-72
2020/12/14 07:07:29;;;;;;;0.35;0.10;;;20.00;45.40;;;;;;5049833;28;20075;-71
2020/12/14 07:10:08;;;;;;;0.10;0.10;;;20.00;45.30;;;;;;5052834;28;20060;-72
2020/12/14 07:12:35;;;;;;;0.15;0.15;;;20.10;45.30;;;;;;5047105;28;20077;-71
2020/12/14 07:15:00;;;;;;;0.10;0.10;;;20.10;45.30;;;;;;5035253;28;20070;-71
2020/12/14 07:17:27;;;;;;;0.57;0.17;;;20.10;45.90;;;;;;5069467;28;20037;-71
2020/12/14 07:19:57;;;;;;;0.25;0.10;;;20.10;45.30;;;;;;5049688;28;20467;-72
2020/12/14 07:22:24;;;;;;;0.32;0.20;;;20.10;45.30;;;;;;5044273;28;20119;-72
2020/12/14 07:25:15;;;;;;;0.32;0.13;;;20.10;45.30;;;;;;5058205;28;20511;-72
2020/12/14 07:27:40;;;;;;;0.65;0.25;;;20.10;45.30;;;;;;5039458;28;20186;-72
2020/12/14 07:30:10;;;;;;;1.00;0.32;;;20.10;45.40;;;;;;5064345;28;20119;-71
2020/12/14 07:32:36;;;;;;;1.95;0.60;;;20.10;45.30;;;;;;5049133;28;20039;-71
2020/12/14 07:35:02;;;;;;;0.68;0.43;;;20.10;45.40;;;;;;5048466;28;20387;-72
2020/12/14 07:37:27;;;;;;;1.65;0.40;;;20.10;45.30;;;;;;5067286;28;20759;-71
2020/12/14 07:39:53;;;;;;;0.85;0.43;;;20.20;45.40;;;;;;5068760;28;20052;-72
2020/12/14 07:42:23;;;;;;;1.75;0.30;;;20.20;45.30;;;;;;5044467;28;20510;-72
2020/12/14 07:44:48;;;;;;;8.30;0.38;;;20.20;45.20;;;;;;5066062;28;20025;-71
2020/12/14 07:47:21;;;;;;;1.77;0.50;;;20.20;45.20;;;;;;5044032;28;20053;-71
2020/12/14 07:49:46;;;;;;;2.92;0.55;;;20.20;45.10;;;;;;5036763;28;20025;-73
2020/12/14 07:52:29;;;;;;;3.13;0.50;;;20.30;45.10;;;;;;5046212;28;20070;-72
2020/12/14 07:55:06;;;;;;;0.85;0.28;;;20.30;45.70;;;;;;5054857;28;20024;-72
2020/12/14 07:57:36;;;;;;;1.75;0.55;;;20.30;45.10;;;;;;5051842;28;20388;-72
2020/12/14 08:00:06;;;;;;;4.80;0.50;;;20.30;45.10;;;;;;5040448;28;20067;-72
2020/12/14 08:02:32;;;;;;;1.20;0.77;;;20.30;45.10;;;;;;5034586;28;20037;-73
2020/12/14 08:05:02;;;;;;;4.57;0.35;;;20.30;45.20;;;;;;5060513;28;20109;-72
2020/12/14 08:07:33;;;;;;;0.28;0.28;;;20.30;45.80;;;;;;5048526;28;20047;-72
2020/12/14 08:09:59;;;;;;;0.80;0.40;;;20.30;45.20;;;;;;5040902;28;20028;-72
2020/12/14 08:12:25;;;;;;;2.00;0.70;;;20.30;45.20;;;;;;5058198;28;20515;-71
2020/12/14 08:14:50;;;;;;;0.30;0.28;;;20.30;45.30;;;;;;5049997;28;20043;-72
2020/12/14 08:17:16;;;;;;;1.40;0.30;;;20.30;45.30;;;;;;5059352;28;20032;-72
2020/12/14 08:19:44;;;;;;;3.83;0.40;;;20.30;45.30;;;;;;5053512;28;20111;-72
2020/12/14 08:22:12;;;;;;;1.42;0.30;;;20.30;45.30;;;;;;5087352;28;20027;-72
2020/12/14 08:24:38;;;;;;;0.20;0.20;;;20.30;45.30;;;;;;5059622;28;20098;-72
2020/12/14 08:27:06;;;;;;;0.60;0.20;;;20.40;45.40;;;;;;5072666;28;20016;-73
2020/12/14 08:29:32;;;;;;;0.50;0.20;;;20.40;45.30;;;;;;5059699;28;20419;-72
2020/12/14 08:31:58;;;;;;;0.28;0.20;;;20.40;45.30;;;;;;5042554;28;20016;-72
2020/12/14 08:34:37;;;;;;;0.98;0.30;;;20.40;45.30;;;;;;5043913;28;20033;-72
2020/12/14 08:37:03;;;;;;;1.35;0.50;;;20.40;45.30;;;;;;5058520;28;20020;-74
2020/12/14 08:39:29;;;;;;;2.35;0.90;;;20.40;45.40;;;;;;5072171;28;20424;-72
2020/12/14 08:42:05;;;;;;;0.52;0.35;;;20.40;46.00;;;;;;5077007;28;20024;-73
2020/12/14 08:44:31;;;;;;;0.38;0.30;;;20.40;45.40;;;;;;5069182;28;20036;-72
2020/12/14 08:46:56;;;;;;;0.28;0.28;;;20.40;45.40;;;;;;5049697;28;20090;-72
2020/12/14 08:49:22;;;;;;;0.30;0.28;;;20.40;45.50;;;;;;5071381;28;20037;-75
2020/12/14 08:51:48;;;;;;;0.63;0.30;;;20.40;46.00;;;;;;5079683;28;20021;-72
2020/12/14 08:54:17;;;;;;;1.05;0.15;;;20.40;45.50;;;;;;5043480;28;20028;-72
2020/12/14 08:56:46;;;;;;;0.30;0.20;;;20.30;45.40;;;;;;5068075;28;20035;-72
2020/12/14 08:59:16;;;;;;;2.17;0.35;;;20.30;45.50;;;;;;5065301;28;20466;-72
2020/12/14 09:01:54;;;;;;;0.30;0.30;;;20.30;45.60;;;;;;5041782;28;20025;-72
2020/12/14 09:04:26;;;;;;;0.40;0.10;;;20.30;45.60;;;;;;5049001;28;20076;-72
2020/12/14 09:06:52;;;;;;;0.65;0.30;;;20.30;45.70;;;;;;5054421;28;20036;-73
2020/12/14 09:09:17;;;;;;;6.43;0.40;;;20.30;45.70;;;;;;5088562;28;20032;-72
2020/12/14 09:11:46;;;;;;;1.95;0.10;;;20.20;45.70;;;;;;5069859;28;20063;-73
2020/12/14 09:14:20;;;;;;;0.10;0.10;;;20.20;45.80;;;;;;5059245;28;20098;-72
2020/12/14 09:16:50;;;;;;;0.73;0.30;;;20.30;45.80;;;;;;5055835;28;20030;-71
2020/12/14 09:19:24;;;;;;;0.63;0.30;;;20.30;45.70;;;;;;5043064;28;20031;-74
2020/12/14 09:21:51;;;;;;;0.55;0.30;;;20.30;45.60;;;;;;5057121;28;20036;-74
2020/12/14 09:24:21;;;;;;;0.30;0.30;;;20.30;45.70;;;;;;5051141;28;20040;-74
2020/12/14 09:26:47;;;;;;;1.48;0.25;;;20.30;45.70;;;;;;5038954;28;20104;-75
2020/12/14 09:29:13;;;;;;;0.22;0.20;;;20.30;45.80;;;;;;5037840;28;20550;-75
2020/12/14 09:31:40;;;;;;;3.10;0.40;;;20.30;45.80;;;;;;5037050;28;20049;-74
2020/12/14 09:34:05;;;;;;;0.93;0.40;;;20.30;45.70;;;;;;5040878;28;20112;-74
2020/12/14 09:36:31;;;;;;;1.27;0.30;;;20.30;45.80;;;;;;5046563;28;20075;-74
2020/12/14 09:38:57;;;;;;;0.93;0.30;;;20.30;45.90;;;;;;5045941;28;20029;-73
2020/12/14 09:41:23;;;;;;;2.75;0.40;;;20.30;45.90;;;;;;5068194;28;20035;-73
2020/12/14 09:44:08;;;;;;;0.35;0.32;;;20.30;45.90;;;;;;5064684;28;20036;-73
2020/12/14 09:46:33;;;;;;;0.50;0.30;;;20.30;45.90;;;;;;5075759;28;20084;-73
2020/12/14 09:48:59;;;;;;;0.63;0.40;;;20.30;45.80;;;;;;5070965;28;20094;-72
2020/12/14 09:51:25;;;;;;;0.40;0.30;;;20.30;45.90;;;;;;5057035;28;20120;-74
2020/12/14 09:53:51;;;;;;;0.52;0.30;;;20.30;45.90;;;;;;5048500;28;20040;-71
2020/12/14 09:56:17;;;;;;;0.47;0.20;;;20.30;45.90;;;;;;5053392;28;20063;-71
2020/12/14 09:58:43;;;;;;;2.20;0.43;;;20.40;45.90;;;;;;5059524;28;20081;-73
2020/12/14 10:01:08;;;;;;;0.28;0.28;;;20.40;45.90;;;;;;5071170;28;20040;-72
2020/12/14 10:03:34;;;;;;;0.20;0.20;;;20.40;45.90;;;;;;5039390;28;20176;-74
2020/12/14 10:06:01;;;;;;;0.70;0.30;;;20.40;45.90;;;;;;5047134;28;20033;-74
2020/12/14 10:08:27;;;;;;;0.30;0.30;;;20.40;45.90;;;;;;5069016;28;20122;-73
2020/12/14 10:10:55;;;;;;;1.13;0.30;;;20.40;45.90;;;;;;5041750;28;20143;-74
2020/12/14 10:13:24;;;;;;;1.08;0.60;;;20.40;45.90;;;;;;5052292;28;20013;-73
2020/12/14 10:15:50;;;;;;;0.93;0.43;;;20.40;45.90;;;;;;5077809;28;20036;-74
2020/12/14 10:18:16;;;;;;;0.65;0.30;;;20.40;45.90;;;;;;5063653;28;20029;-74
2020/12/14 10:20:41;;;;;;;0.40;0.40;;;20.40;45.90;;;;;;5066419;28;20028;-74
2020/12/14 10:23:10;;;;;;;0.28;0.20;;;20.40;45.90;;;;;;5044087;28;20091;-73
2020/12/14 10:28:57;;;;;;;1.33;0.45;;;20.50;45.90;;;;;;5072957;28;20047;-74
2020/12/14 10:31:23;;;;;;;0.95;0.17;;;20.40;45.80;;;;;;5059617;28;20104;-74
2020/12/14 10:33:48;;;;;;;0.32;0.17;;;20.40;45.90;;;;;;5056857;28;20095;-74
2020/12/14 10:36:18;;;;;;;0.40;0.40;;;20.40;45.90;;;;;;5037588;28;20036;-75
2020/12/14 10:38:44;;;;;;;0.73;0.20;;;20.40;45.90;;;;;;5055581;28;20121;-74
2020/12/14 10:41:09;;;;;;;0.32;0.30;;;20.40;46.00;;;;;;5049025;28;20461;-74
2020/12/14 10:43:35;;;;;;;0.35;0.35;;;20.40;46.00;;;;;;5056127;28;20036;-74
2020/12/14 10:46:01;;;;;;;1.48;0.30;;;20.40;45.90;;;;;;5042693;28;20112;-72
2020/12/14 10:48:26;;;;;;;0.40;0.40;;;20.40;45.90;;;;;;5073543;28;20028;-72
2020/12/14 10:50:58;;;;;;;1.02;0.63;;;20.40;46.00;;;;;;5072708;28;20070;-72
2020/12/14 10:53:23;;;;;;;0.75;0.30;;;20.40;46.10;;;;;;5054884;28;20040;-71
2020/12/14 10:55:49;;;;;;;1.15;0.40;;;20.40;46.10;;;;;;5062984;28;20094;-71
2020/12/14 10:58:14;;;;;;;0.65;0.30;;;20.40;46.00;;;;;;5047012;28;20044;-72
2020/12/14 11:00:40;;;;;;;0.30;0.30;;;20.40;46.10;;;;;;5066232;28;20441;-71
2020/12/14 11:03:06;;;;;;;1.38;0.57;;;20.40;46.10;;;;;;5066287;28;20039;-73
2020/12/14 11:05:31;;;;;;;0.73;0.40;;;20.40;46.10;;;;;;5043901;28;20033;-71
2020/12/14 11:07:57;;;;;;;1.15;0.30;;;20.40;46.10;;;;;;5042304;28;20043;-71
2020/12/14 11:10:22;;;;;;;0.95;0.40;;;20.40;46.20;;;;;;5058321;28;20112;-71
2020/12/14 11:12:54;;;;;;;0.30;0.30;;;20.40;46.10;;;;;;5040679;28;20024;-71
2020/12/14 11:15:20;;;;;;;0.70;0.40;;;20.50;46.20;;;;;;5060268;28;20025;-71
2020/12/14 11:17:45;;;;;;;1.30;0.30;;;20.50;46.20;;;;;;5069626;28;20033;-71
2020/12/14 11:20:12;;;;;;;1.73;0.40;;;20.50;46.10;;;;;;5056728;28;20032;-71
2020/12/14 11:22:38;;;;;;;1.45;0.40;;;20.50;46.10;;;;;;5061580;28;20024;-71
2020/12/14 11:25:07;;;;;;;1.10;0.30;;;20.50;46.10;;;;;;5053318;28;20119;-71
2020/12/14 11:27:33;;;;;;;0.65;0.20;;;20.50;46.00;;;;;;5033803;28;20036;-70
2020/12/14 11:30:05;;;;;;;0.55;0.17;;;20.50;46.00;;;;;;5042500;28;20044;-73
2020/12/14 11:32:31;;;;;;;0.43;0.30;;;20.60;45.90;;;;;;5040984;28;20115;-72
2020/12/14 11:34:57;;;;;;;0.20;0.20;;;20.60;45.80;;;;;;5073781;28;20071;-71
2020/12/14 11:37:35;;;;;;;0.10;0.10;;;20.70;45.70;;;;;;5065930;28;20095;-73
2020/12/14 11:40:00;;;;;;;0.20;0.20;;;20.70;45.50;;;;;;5029165;28;20041;-73
2020/12/14 11:42:26;;;;;;;0.20;0.20;;;20.80;45.50;;;;;;5075010;28;20032;-73
2020/12/14 11:44:51;;;;;;;0.20;0.20;;;20.80;45.50;;;;;;5075401;28;20091;-72
2020/12/14 11:47:17;;;;;;;0.28;0.22;;;20.80;45.40;;;;;;5070364;28;20025;-73
2020/12/14 11:49:43;;;;;;;0.40;0.30;;;20.80;45.30;;;;;;5051516;28;20107;-73
2020/12/14 11:52:08;;;;;;;1.80;0.52;;;20.80;45.20;;;;;;5072968;28;20036;-72
2020/12/14 11:54:34;;;;;;;0.30;0.30;;;20.80;45.30;;;;;;5073514;28;20028;-71
2020/12/14 11:56:59;;;;;;;0.10;0.10;;;20.80;45.30;;;;;;5052165;28;20044;-70
2020/12/14 11:59:25;;;;;;;0.77;0.30;;;20.80;46.00;;;;;;5073032;28;20016;-71
2020/12/14 12:01:53;;;;;;;0.30;0.30;;;20.80;45.40;;;;;;5068963;28;20122;-71
2020/12/14 12:04:19;;;;;;;0.43;0.43;;;20.80;45.40;;;;;;5053506;28;20083;-71
2020/12/14 12:06:44;;;;;;;0.40;0.30;;;20.80;45.50;;;;;;5028031;28;20528;-71
2020/12/14 12:09:10;;;;;;;0.20;0.20;;;20.70;45.50;;;;;;5034876;28;20099;-71
2020/12/14 12:11:35;;;;;;;0.30;0.30;;;20.70;45.50;;;;;;5056434;28;20043;-71
2020/12/14 12:14:01;;;;;;;0.63;0.38;;;20.70;45.50;;;;;;5037631;28;20036;-71
2020/12/14 12:16:27;;;;;;;0.30;0.30;;;20.70;45.50;;;;;;5026523;28;20040;-71
2020/12/14 12:18:52;;;;;;;0.25;0.20;;;20.70;45.60;;;;;;5036758;28;20584;-71
2020/12/14 12:21:18;;;;;;;0.40;0.40;;;20.70;45.70;;;;;;5052872;28;20055;-71
2020/12/14 12:23:43;;;;;;;0.38;0.20;;;20.60;45.70;;;;;;5062619;28;20074;-71
2020/12/14 12:26:09;;;;;;;1.17;0.55;;;20.60;45.70;;;;;;5072283;28;20408;-71
2020/12/14 12:28:35;;;;;;;4.22;0.45;;;20.60;45.70;;;;;;5064431;28;20057;-71
2020/12/14 12:31:00;;;;;;;0.17;0.17;;;20.60;45.70;;;;;;5034918;28;20033;-71
2020/12/14 12:33:26;;;;;;;0.38;0.30;;;20.60;45.70;;;;;;5058897;28;20036;-71
2020/12/14 12:35:51;;;;;;;0.20;0.20;;;20.60;45.70;;;;;;5072603;28;20039;-71
2020/12/14 12:38:17;;;;;;;0.45;0.17;;;20.60;45.70;;;;;;5070281;28;20031;-71
2020/12/14 12:40:42;;;;;;;0.20;0.20;;;20.60;45.70;;;;;;5071782;28;20415;-72
2020/12/14 12:43:08;;;;;;;0.60;0.30;;;20.60;45.70;;;;;;5054647;28;20090;-72
2020/12/14 12:45:33;;;;;;;0.20;0.20;;;20.60;45.70;;;;;;5070710;28;20032;-71
2020/12/14 12:47:59;;;;;;;0.20;0.10;;;20.60;45.70;;;;;;5055279;28;20059;-71
2020/12/14 12:50:24;;;;;;;0.35;0.30;;;20.60;45.80;;;;;;5067958;28;20017;-71
2020/12/14 12:52:50;;;;;;;0.30;0.30;;;20.50;45.80;;;;;;5053677;28;20024;-71
2020/12/14 12:55:16;;;;;;;0.60;0.22;;;20.60;45.90;;;;;;5053671;28;20074;-72
2020/12/14 12:57:41;;;;;;;0.82;0.20;;;20.60;45.90;;;;;;5071645;28;20515;-71
2020/12/14 13:00:07;;;;;;;0.25;0.25;;;20.60;45.90;;;;;;5070859;28;20040;-71